Storm Events Database

Event Details

Event Thunderstorm Wind
Magnitude 52 kts.
State NEBRASKA
County/Area DAWES
WFO CYS
Report Source Law Enforcement
NCDC Data Source CSV
Begin Date 2010-05-24 13:56:00.0 MST-7
Begin Location 10S CHADRON
Begin Lat/Lon 42.69/-103
End Date 2010-05-24 13:58:00.0 MST-7
Deaths Direct/Indirect 0/0 (fatality details below, when available...)
Injuries Direct/Indirect 0/0
Property Damage
Crop Damage
Episode Narrative On May 24th a strong cold front was moving eastward through the area. During the late morning warnings were already being issued for the NE Panhandle. By mid-afternoon the cold front had pushed far enough eastward to move the activity out of our area. After the dust had settled, 3 tornado warnings and 14 severe t-storm warnings had been issued. Wind gusts of over 70 mph, and hailstones of up to four inches were reported. Highway 30 from mile marker 87 to 95 was briefly closed due to downed power lines. According to the Kimball County Sheriff, the storm caused an estimated five million dollars damage to the Kimball area.
Event Narrative Deputy sheriff reported small hail, heavy rain, zero visibility.


     ‚Äč



All events for this episode:

Location County/Zone St. Date Time T.Z. Type Mag Dth Inj PrD CrD
Totals: 0 0 106.90K 0.00K
KIMBALL KIMBALL CO. NE 05/24/2010 10:29 MST-7 Hail 2.50 in. 0 0 0.00K 0.00K
KIMBALL KIMBALL CO. NE 05/24/2010 10:34 MST-7 Hail 1.75 in. 0 0 0.00K 0.00K
KIMBALL KIMBALL CO. NE 05/24/2010 10:34 MST-7 Hail 1.75 in. 0 0 2.00K 0.00K
KIMBALL KIMBALL CO. NE 05/24/2010 10:34 MST-7 Hail 2.75 in. 0 0 0.00K 0.00K
KIMBALL KIMBALL CO. NE 05/24/2010 10:34 MST-7 Tornado EF0 0 0 0.00K 0.00K
FT ROBINSON DAWES CO. NE 05/24/2010 10:35 MST-7 Hail 1.00 in. 0 0 0.00K 0.00K
GERING SCOTTS BLUFF CO. NE 05/24/2010 10:49 MST-7 Hail 1.00 in. 0 0 0.00K 0.00K
HARRISON SIOUX CO. NE 05/24/2010 10:49 MST-7 Hail 1.00 in. 0 0 0.00K 0.00K
GERING SCOTTS BLUFF CO. NE 05/24/2010 10:50 MST-7 Hail 2.75 in. 0 0 0.00K 0.00K
GERING SCOTTS BLUFF CO. NE 05/24/2010 10:54 MST-7 Hail 1.75 in. 0 0 0.00K 0.00K
MORRILL SCOTTS BLUFF CO. NE 05/24/2010 10:54 MST-7 Hail 1.00 in. 0 0 0.00K 0.00K
SCOTTSBLUFF SCOTTS BLUFF CO. NE 05/24/2010 10:55 MST-7 Hail 1.50 in. 0 0 0.00K 0.00K
SCOTTSBLUFF SCOTTS BLUFF CO. NE 05/24/2010 10:55 MST-7 Hail 1.75 in. 0 0 0.00K 0.00K
SCOTTSBLUFF SCOTTS BLUFF CO. NE 05/24/2010 10:57 MST-7 Hail 1.00 in. 0 0 0.00K 0.00K
SCOTTSBLUFF SCOTTS BLUFF CO. NE 05/24/2010 10:58 MST-7 Hail 1.75 in. 0 0 0.00K 0.00K
HARRISON SIOUX CO. NE 05/24/2010 10:59 MST-7 Hail 1.00 in. 0 0 0.00K 0.00K
SCOTTSBLUFF SCOTTS BLUFF CO. NE 05/24/2010 11:00 MST-7 Hail 3.00 in. 0 0 0.00K 0.00K
SCOTTSBLUFF ARPT SCOTTS BLUFF CO. NE 05/24/2010 11:00 MST-7 Hail 1.75 in. 0 0 0.00K 0.00K
(BFF)HELIG FLD SCOTS SCOTTS BLUFF CO. NE 05/24/2010 11:11 MST-7 Tornado EF0 0 0 0.00K 0.00K
SCOTTSBLUFF SCOTTS BLUFF CO. NE 05/24/2010 11:13 MST-7 Hail 2.00 in. 0 0 0.00K 0.00K
SCOTTSBLUFF SCOTTS BLUFF CO. NE 05/24/2010 11:15 MST-7 Thunderstorm Wind 52 kts. ES 0 0 1.00K 0.00K
GERING SCOTTS BLUFF CO. NE 05/24/2010 11:16 MST-7 Tornado EF0 0 0 0.00K 0.00K
AGATE SIOUX CO. NE 05/24/2010 11:19 MST-7 Hail 1.00 in. 0 0 0.00K 0.00K
MINATARE SCOTTS BLUFF CO. NE 05/24/2010 11:19 MST-7 Thunderstorm Wind 56 kts. ES 0 0 3.60K 0.00K
KIMBALL KIMBALL CO. NE 05/24/2010 11:28 MST-7 Hail 4.25 in. 0 0 0.00K 0.00K
KIMBALL KIMBALL CO. NE 05/24/2010 11:38 MST-7 Tornado EF0 0 0 0.00K 0.00K
SCOTTSBLUFF SCOTTS BLUFF CO. NE 05/24/2010 11:44 MST-7 Hail 1.00 in. 0 0 0.00K 0.00K
SCOTTSBLUFF SCOTTS BLUFF CO. NE 05/24/2010 11:59 MST-7 Hail 1.75 in. 0 0 0.00K 0.00K
SIDNEY CHEYENNE CO. NE 05/24/2010 12:17 MST-7 Thunderstorm Wind 61 kts. EG 0 0 1.00K 0.00K
DALTON CHEYENNE CO. NE 05/24/2010 12:21 MST-7 Hail 1.00 in. 0 0 0.00K 0.00K
GLEN SIOUX CO. NE 05/24/2010 12:23 MST-7 Hail 2.75 in. 0 0 0.00K 0.00K
HARRISON SIOUX CO. NE 05/24/2010 12:29 MST-7 Hail 2.50 in. 0 0 0.00K 0.00K
BRIDGEPORT MORRILL CO. NE 05/24/2010 12:41 MST-7 Heavy Rain 0 0 0.00K 0.00K
CRAWFORD DAWES CO. NE 05/24/2010 12:41 MST-7 Hail 1.75 in. 0 0 0.00K 0.00K
CRAWFORD DAWES CO. NE 05/24/2010 12:44 MST-7 Hail 2.00 in. 0 0 0.00K 0.00K
BRIDGEPORT MORRILL CO. NE 05/24/2010 12:49 MST-7 Thunderstorm Wind 52 kts. EG 0 0 0.50K 0.00K
ALLIANCE BOX BUTTE CO. NE 05/24/2010 12:59 MST-7 Hail 1.00 in. 0 0 0.00K 0.00K
ALLIANCE BOX BUTTE CO. NE 05/24/2010 12:59 MST-7 Thunderstorm Wind 56 kts. EG 0 0 1.10K 0.00K
ALLIANCE BOX BUTTE CO. NE 05/24/2010 12:59 MST-7 Hail 2.00 in. 0 0 0.00K 0.00K
BEREA BOX BUTTE CO. NE 05/24/2010 12:59 MST-7 Hail 1.75 in. 0 0 0.00K 0.00K
BROADWATER MORRILL CO. NE 05/24/2010 13:09 MST-7 Thunderstorm Wind 61 kts. EG 0 0 0.00K 0.00K
ALLIANCE BOX BUTTE CO. NE 05/24/2010 13:11 MST-7 Thunderstorm Wind 70 kts. EG 0 0 50.00K 0.00K
ALLIANCE BOX BUTTE CO. NE 05/24/2010 13:11 MST-7 Thunderstorm Wind 61 kts. EG 0 0 0.00K 0.00K
ALLIANCE BOX BUTTE CO. NE 05/24/2010 13:11 MST-7 Tornado EF0 0 0 0.00K 0.00K
ALLIANCE BOX BUTTE CO. NE 05/24/2010 13:28 MST-7 Hail 2.50 in. 0 0 0.00K 0.00K
ALLIANCE BOX BUTTE CO. NE 05/24/2010 13:28 MST-7 Hail 1.75 in. 0 0 0.00K 0.00K
ALLIANCE BOX BUTTE CO. NE 05/24/2010 13:28 MST-7 Thunderstorm Wind 65 kts. EG 0 0 40.00K 0.00K
ALLIANCE BOX BUTTE CO. NE 05/24/2010 13:29 MST-7 Thunderstorm Wind 65 kts. EG 0 0 4.00K 0.00K
ALLIANCE BOX BUTTE CO. NE 05/24/2010 13:29 MST-7 Hail 1.50 in. 0 0 0.00K 0.00K
ALLIANCE BOX BUTTE CO. NE 05/24/2010 13:29 MST-7 Thunderstorm Wind 56 kts. EG 0 0 3.00K 0.00K
BEREA BOX BUTTE CO. NE 05/24/2010 13:29 MST-7 Hail 1.75 in. 0 0 0.00K 0.00K
ALLIANCE BOX BUTTE CO. NE 05/24/2010 13:39 MST-7 Hail 1.50 in. 0 0 0.00K 0.00K
ALLIANCE BOX BUTTE CO. NE 05/24/2010 13:39 MST-7 Hail 1.75 in. 0 0 0.00K 0.00K
CHADRON DAWES CO. NE 05/24/2010 13:50 MST-7 Thunderstorm Wind 61 kts. EG 0 0 0.00K 0.00K
CHADRON DAWES CO. NE 05/24/2010 13:56 MST-7 Thunderstorm Wind 52 kts. EG 0 0 0.00K 0.00K
BEREA BOX BUTTE CO. NE 05/24/2010 13:59 MST-7 Hail 2.00 in. 0 0 0.00K 0.00K
BEREA BOX BUTTE CO. NE 05/24/2010 13:59 MST-7 Hail 1.75 in. 0 0 0.70K 0.00K
Totals: 0 0 106.90K 0.00K